Time;durP1;ratioP1;P1;durP2;ratioP2;P2;SDS_P1;SDS_P2;PMS_P1;PMS_P2;Temp;Humidity;BMP_temperature;BMP_pressure;BME280_temperature;BME280_humidity;BME280_pressure;Samples;Min_cycle;Max_cycle;Signal;HPM_P1;HPM_P2
2024/04/13 00:04:07;;;;;;;2.60;1.55;;;;;;;11.69;62.68;101187.56;11289442;26;20381;-60
2024/04/13 00:09:09;;;;;;;2.30;1.65;;;;;;;11.68;62.51;101179.78;11324983;26;20462;-60
2024/04/13 00:14:12;;;;;;;5.07;1.60;;;;;;;11.46;62.72;101185.09;11314451;26;20022;-61
2024/04/13 00:19:15;;;;;;;4.72;1.73;;;;;;;11.47;62.75;101186.81;11318804;26;20017;-62
2024/04/13 00:24:17;;;;;;;4.55;1.70;;;;;;;11.57;63.07;101188.09;11323538;26;20010;-61
2024/04/13 00:29:20;;;;;;;3.40;1.67;;;;;;;11.59;62.92;101191.50;11316680;26;20029;-61
2024/04/13 00:34:23;;;;;;;3.35;1.77;;;;;;;11.42;62.54;101190.53;11320232;26;20450;-61
2024/04/13 00:39:25;;;;;;;5.15;1.70;;;;;;;11.24;62.93;101190.41;11315791;26;20017;-61
2024/04/13 00:44:28;;;;;;;6.57;1.90;;;;;;;11.27;63.20;101178.97;11319781;26;20014;-61
2024/04/13 00:49:37;;;;;;;3.15;1.70;;;;;;;11.31;62.74;101188.38;11293263;26;20482;-61
2024/04/13 00:54:41;;;;;;;4.80;1.80;;;;;;;11.22;62.75;101181.75;11317727;26;20402;-60
2024/04/13 00:59:43;;;;;;;2.92;1.63;;;;;;;11.27;62.78;101174.53;11315530;26;20085;-61
2024/04/13 01:04:50;;;;;;;4.22;1.88;;;;;;;11.32;62.93;101178.78;11320797;26;20438;-61
2024/04/13 01:09:54;;;;;;;3.80;1.70;;;;;;;11.24;62.93;101166.84;11317508;26;20587;-60
2024/04/13 01:14:57;;;;;;;3.08;1.70;;;;;;;11.08;63.18;101178.03;11319451;26;20009;-61
2024/04/13 01:20:00;;;;;;;3.15;1.70;;;;;;;11.01;63.50;101177.38;11313835;26;20104;-61
2024/04/13 01:25:03;;;;;;;3.90;1.80;;;;;;;10.94;63.11;101172.47;11306452;26;20009;-65
2024/04/13 01:30:11;;;;;;;4.13;2.63;;;;;;;10.98;63.56;101163.59;11323398;26;20007;-61
2024/04/13 01:35:14;;;;;;;5.30;2.17;;;;;;;11.01;63.28;101161.69;11314088;26;20002;-62
2024/04/13 01:40:17;;;;;;;5.50;2.42;;;;;;;11.04;63.01;101166.84;11318322;26;20080;-61
2024/04/13 01:45:19;;;;;;;3.40;1.67;;;;;;;10.89;62.91;101177.91;11319118;26;20004;-61
2024/04/13 01:50:22;;;;;;;2.65;1.55;;;;;;;10.76;63.19;101176.72;11323050;26;20349;-61
2024/04/13 01:55:24;;;;;;;3.67;2.08;;;;;;;10.73;63.08;101173.34;11322335;26;20099;-61
2024/04/13 02:00:31;;;;;;;4.40;1.85;;;;;;;10.71;63.14;101168.19;11326495;26;20006;-60
2024/04/13 02:05:35;;;;;;;4.05;2.20;;;;;;;10.72;63.31;101172.53;11324984;26;19994;-61
2024/04/13 02:10:39;;;;;;;5.63;2.00;;;;;;;10.70;63.10;101158.66;11321845;26;20017;-61
2024/04/13 02:15:48;;;;;;;6.88;2.20;;;;;;;10.63;63.54;101156.31;11325305;26;20443;-62
2024/04/13 02:20:51;;;;;;;3.97;2.08;;;;;;;10.56;63.05;101154.88;11324116;26;20006;-61
2024/04/13 02:25:53;;;;;;;2.60;1.50;;;;;;;10.58;63.24;101148.69;11320418;26;20210;-61
2024/04/13 02:30:59;;;;;;;3.92;1.98;;;;;;;10.50;63.54;101169.06;11324321;26;20564;-61
2024/04/13 02:36:03;;;;;;;3.65;2.00;;;;;;;10.41;63.32;101158.97;11325778;26;20018;-61
2024/04/13 02:41:06;;;;;;;50.83;2.75;;;;;;;10.30;63.51;101163.75;11325177;26;20017;-61
2024/04/13 02:46:11;;;;;;;2.75;1.67;;;;;;;10.08;63.39;101153.28;11295522;26;19999;-61
2024/04/13 02:51:17;;;;;;;4.45;2.47;;;;;;;10.11;63.73;101152.31;11324265;26;20056;-61
2024/04/13 02:56:19;;;;;;;3.88;1.60;;;;;;;10.08;63.90;101152.41;11323246;26;20013;-61
2024/04/13 03:01:22;;;;;;;2.05;1.38;;;;;;;10.17;63.37;101149.47;11322268;26;20235;-62
2024/04/13 03:06:25;;;;;;;3.83;2.20;;;;;;;10.13;63.58;101146.13;11321283;26;20047;-61
2024/04/13 03:11:27;;;;;;;5.47;2.03;;;;;;;10.15;63.45;101139.06;11320057;26;20007;-60
2024/04/13 03:16:31;;;;;;;5.07;2.17;;;;;;;10.15;63.22;101136.47;11323291;26;20086;-61
2024/04/13 03:21:35;;;;;;;7.97;2.88;;;;;;;9.84;63.31;101142.91;11323093;26;20006;-61
2024/04/13 03:26:38;;;;;;;15.60;1.98;;;;;;;9.59;63.60;101138.56;11322891;26;20014;-61
2024/04/13 03:31:41;;;;;;;3.08;1.75;;;;;;;9.68;64.01;101128.72;11325302;26;20310;-61
2024/04/13 03:36:44;;;;;;;3.30;1.80;;;;;;;9.79;63.94;101131.78;11323316;26;20411;-61
2024/04/13 03:41:47;;;;;;;3.53;1.60;;;;;;;9.75;63.71;101119.75;11321819;26;20017;-61
2024/04/13 03:46:49;;;;;;;4.07;2.00;;;;;;;9.75;63.79;101124.97;11324752;26;20014;-61
2024/04/13 03:51:52;;;;;;;5.88;2.15;;;;;;;9.82;63.65;101121.22;11320375;26;20466;-61
2024/04/13 03:56:54;;;;;;;3.75;2.08;;;;;;;9.82;63.35;101122.06;11327992;26;20334;-60
2024/04/13 04:02:00;;;;;;;4.00;2.20;;;;;;;9.72;63.18;101130.28;11315960;26;20006;-61
2024/04/13 04:07:03;;;;;;;2.10;1.55;;;;;;;9.77;63.28;101117.94;11321676;26;20017;-61
2024/04/13 04:12:06;;;;;;;4.80;1.67;;;;;;;9.77;63.39;101129.22;11321273;26;20108;-61
2024/04/13 04:17:08;;;;;;;3.00;1.50;;;;;;;9.87;63.34;101120.13;11319050;26;20302;-61
2024/04/13 04:22:11;;;;;;;5.90;1.83;;;;;;;9.83;63.32;101134.19;11321116;26;20363;-61
2024/04/13 04:27:13;;;;;;;5.13;2.15;;;;;;;9.61;63.59;101123.69;11325782;26;20002;-60
2024/04/13 04:32:16;;;;;;;4.97;1.83;;;;;;;9.65;63.67;101130.50;11313031;26;20331;-60
2024/04/13 04:37:20;;;;;;;4.97;1.88;;;;;;;9.81;63.15;101137.81;11322330;26;20013;-60
2024/04/13 04:42:24;;;;;;;13.20;2.33;;;;;;;9.91;63.45;101134.75;11322947;26;20021;-60
2024/04/13 04:47:28;;;;;;;7.53;2.50;;;;;;;10.00;63.53;101129.19;11320784;26;19998;-61
2024/04/13 04:52:30;;;;;;;9.07;1.90;;;;;;;10.09;63.44;101139.31;11323924;26;20006;-60
2024/04/13 04:57:33;;;;;;;20.23;2.28;;;;;;;10.13;63.45;101145.28;11320268;26;20006;-60
2024/04/13 05:02:36;;;;;;;2.13;1.52;;;;;;;10.22;63.02;101148.38;11320238;26;20470;-60
2024/04/13 05:07:38;;;;;;;4.97;1.80;;;;;;;10.28;62.85;101149.88;11322211;26;20003;-60
2024/04/13 05:12:41;;;;;;;31.55;2.30;;;;;;;10.32;63.05;101144.47;11314172;26;20324;-60
2024/04/13 05:17:44;;;;;;;4.30;1.40;;;;;;;10.40;62.57;101138.94;11320129;26;20002;-60
2024/04/13 05:22:46;;;;;;;32.92;2.20;;;;;;;10.35;62.61;101146.13;11325053;26;20009;-60
2024/04/13 05:27:49;;;;;;;2.58;1.38;;;;;;;10.24;62.91;101154.38;11323796;26;20210;-60
2024/04/13 05:32:52;;;;;;;2.45;1.58;;;;;;;10.43;63.07;101159.75;11329593;26;20006;-60
2024/04/13 05:37:55;;;;;;;3.05;1.70;;;;;;;10.80;62.94;101162.59;11293971;26;20026;-60
2024/04/13 05:42:58;;;;;;;3.40;1.52;;;;;;;11.13;62.13;101174.28;11324544;26;20023;-61
2024/04/13 05:48:01;;;;;;;1.90;1.40;;;;;;;11.14;61.73;101168.16;11328540;26;19998;-60
2024/04/13 05:53:04;;;;;;;8.05;1.70;;;;;;;11.24;61.70;101173.84;11317907;26;20002;-60
2024/04/13 05:58:07;;;;;;;8.15;2.08;;;;;;;11.32;61.68;101181.38;11330778;26;19998;-60
2024/04/13 06:03:15;;;;;;;7.78;1.65;;;;;;;11.68;61.41;101177.16;11327854;26;20033;-61
2024/04/13 06:08:17;;;;;;;3.70;2.20;;;;;;;12.10;60.89;101172.56;11328811;26;20013;-61
2024/04/13 06:13:20;;;;;;;2.17;1.50;;;;;;;12.33;60.18;101177.63;11331366;26;20002;-62
2024/04/13 06:18:23;;;;;;;55.22;2.95;;;;;;;12.19;59.96;101177.41;11330585;26;20103;-61
2024/04/13 06:23:25;;;;;;;4.45;2.50;;;;;;;12.31;59.91;101178.63;11328291;26;20461;-62
2024/04/13 06:28:28;;;;;;;3.50;2.00;;;;;;;12.68;60.05;101178.56;11328960;26;19998;-63
2024/04/13 06:33:31;;;;;;;4.68;1.95;;;;;;;12.71;59.42;101181.88;11330065;26;19998;-63
2024/04/13 06:38:33;;;;;;;4.03;1.85;;;;;;;12.81;59.72;101169.16;11330509;26;20338;-63
2024/04/13 06:43:36;;;;;;;2.50;1.60;;;;;;;12.93;60.26;101166.78;11330084;26;20002;-63
2024/04/13 06:48:39;;;;;;;2.70;1.60;;;;;;;13.19;59.38;101168.06;11329533;26;20474;-63
2024/04/13 06:53:42;;;;;;;2.88;1.55;;;;;;;13.36;59.44;101148.81;11327161;26;20002;-63
2024/04/13 06:58:44;;;;;;;4.25;1.60;;;;;;;13.78;59.36;101147.44;11330030;26;20091;-63
2024/04/13 07:03:47;;;;;;;3.55;1.92;;;;;;;13.74;59.08;101142.41;11329969;26;20489;-63
2024/04/13 07:08:50;;;;;;;4.55;1.95;;;;;;;13.42;58.92;101144.13;11329232;26;20605;-63
2024/04/13 07:13:52;;;;;;;5.05;2.80;;;;;;;13.27;59.45;101142.25;11326793;26;20318;-63
2024/04/13 07:18:55;;;;;;;5.57;3.10;;;;;;;13.29;59.84;101144.84;11322715;26;20006;-62
2024/04/13 07:23:57;;;;;;;10.52;4.82;;;;;;;13.48;59.83;101132.44;11321188;26;20017;-62
2024/04/13 07:29:01;;;;;;;11.63;7.55;;;;;;;13.85;59.15;101121.66;11320798;26;20006;-61
2024/04/13 07:34:04;;;;;;;13.77;8.68;;;;;;;14.14;58.40;101123.56;11321578;26;20006;-62
2024/04/13 07:39:07;;;;;;;11.50;7.45;;;;;;;14.32;58.77;101117.25;11318637;26;20021;-62
2024/04/13 07:44:09;;;;;;;10.40;6.25;;;;;;;14.76;58.02;101116.53;11320766;26;20006;-62
2024/04/13 07:49:12;;;;;;;9.98;6.05;;;;;;;15.40;57.27;101109.09;11319334;26;20078;-62
2024/04/13 07:54:15;;;;;;;9.55;6.22;;;;;;;15.99;56.38;101101.00;11265860;26;19994;-62
2024/04/13 07:59:18;;;;;;;10.77;5.78;;;;;;;16.32;55.62;101103.25;11319370;26;20141;-62
2024/04/13 08:04:20;;;;;;;9.45;5.50;;;;;;;16.56;55.36;101090.25;11317867;26;19998;-62
2024/04/13 08:09:23;;;;;;;9.25;5.15;;;;;;;16.98;54.94;101093.50;11319605;26;21870;-62
2024/04/13 08:14:26;;;;;;;8.02;4.70;;;;;;;17.59;53.95;101089.28;11321900;26;19998;-62
2024/04/13 08:19:28;;;;;;;7.32;4.63;;;;;;;18.07;53.28;101072.56;11318053;26;19998;-62
2024/04/13 08:24:31;;;;;;;9.23;5.35;;;;;;;18.50;52.37;101070.28;11318991;26;20009;-62
2024/04/13 08:29:33;;;;;;;7.55;5.20;;;;;;;19.13;51.40;101065.44;11313651;26;20002;-62
2024/04/13 08:34:36;;;;;;;9.32;4.60;;;;;;;19.79;50.62;101064.56;11317921;26;20006;-62
2024/04/13 08:39:41;;;;;;;7.07;3.88;;;;;;;20.31;49.69;101058.56;11318125;26;19998;-62
2024/04/13 08:44:44;;;;;;;6.32;3.30;;;;;;;20.28;49.65;101053.47;11318086;26;20002;-62
2024/04/13 08:49:48;;;;;;;6.43;3.53;;;;;;;20.32;49.64;101051.41;11318041;26;20043;-62
2024/04/13 08:54:51;;;;;;;7.57;4.00;;;;;;;20.79;49.34;101041.19;11319099;26;20087;-62
2024/04/13 08:59:55;;;;;;;4.03;2.50;;;;;;;20.97;48.77;101036.94;11316997;26;20013;-62
2024/04/13 09:05:02;;;;;;;5.60;3.20;;;;;;;21.13;48.47;101027.66;11318145;26;19995;-61
2024/04/13 09:10:05;;;;;;;6.78;2.40;;;;;;;21.51;47.98;101018.06;11318566;26;20002;-62
2024/04/13 09:15:07;;;;;;;3.00;1.90;;;;;;;21.99;47.21;101011.97;11318500;26;20078;-63
2024/04/13 09:20:11;;;;;;;4.43;1.88;;;;;;;22.15;46.77;101009.66;11315072;26;20577;-62
2024/04/13 09:25:24;;;;;;;3.97;1.70;;;;;;;22.40;45.08;100998.41;11318767;26;20002;-61
2024/04/13 09:30:27;;;;;;;5.75;2.30;;;;;;;22.42;45.88;100994.63;11316427;26;20006;-61
2024/04/13 09:35:30;;;;;;;4.00;1.67;;;;;;;22.42;45.32;100993.78;11317532;26;20074;-62
2024/04/13 09:40:36;;;;;;;3.28;1.52;;;;;;;22.53;45.53;100997.16;11315552;26;20085;-62
2024/04/13 09:45:40;;;;;;;2.83;1.80;;;;;;;23.07;44.79;100985.81;11316652;26;20014;-62
2024/04/13 09:50:42;;;;;;;3.20;1.48;;;;;;;23.37;44.28;100980.19;11313030;26;20017;-62
2024/04/13 09:55:46;;;;;;;2.85;1.42;;;;;;;23.33;44.14;100969.97;11317607;26;20202;-62
2024/04/13 10:00:49;;;;;;;2.13;1.23;;;;;;;23.68;43.57;100970.06;11310824;26;20008;-62
2024/04/13 10:05:55;;;;;;;2.60;1.30;;;;;;;23.94;43.21;100964.81;11309661;26;20018;-61
2024/04/13 10:10:59;;;;;;;7.57;1.90;;;;;;;23.85;42.79;100958.56;11319654;26;20040;-60
2024/04/13 10:16:04;;;;;;;3.63;1.60;;;;;;;23.79;42.26;100953.81;11318528;26;20930;-60
2024/04/13 10:21:07;;;;;;;4.88;1.60;;;;;;;23.75;42.21;100947.09;11320305;26;20867;-60
2024/04/13 10:26:09;;;;;;;3.00;1.48;;;;;;;23.73;41.99;100942.91;11319049;26;20006;-60
2024/04/13 10:31:18;;;;;;;3.40;1.40;;;;;;;23.86;40.86;100933.50;11321333;26;19999;-60
2024/04/13 10:36:32;;;;;;;3.73;1.37;;;;;;;23.97;41.25;100921.75;11282975;26;21098;-60
2024/04/13 10:41:37;;;;;;;2.30;1.48;;;;;;;23.74;41.68;100917.84;11314621;26;20350;-60
2024/04/13 10:46:41;;;;;;;2.47;1.25;;;;;;;23.90;41.24;100902.81;11314482;26;20090;-61
2024/04/13 10:51:44;;;;;;;2.90;1.38;;;;;;;24.13;41.16;100898.72;11317177;26;20006;-61
2024/04/13 10:56:46;;;;;;;3.10;1.20;;;;;;;24.23;40.61;100894.09;11321089;26;20006;-61
2024/04/13 11:01:53;;;;;;;2.33;1.20;;;;;;;24.06;39.88;100889.59;11319013;26;20017;-60
2024/04/13 11:06:56;;;;;;;1.17;0.90;;;;;;;24.04;39.69;100888.09;11322221;26;20018;-60
2024/04/13 11:11:59;;;;;;;2.40;1.00;;;;;;;24.08;39.99;100879.63;11321412;26;20306;-60
2024/04/13 11:17:01;;;;;;;1.63;1.00;;;;;;;24.20;39.76;100880.22;11317198;26;20070;-61
2024/04/13 11:22:05;;;;;;;2.60;0.90;;;;;;;24.28;38.43;100862.41;11319552;26;20002;-62
2024/04/13 11:27:08;;;;;;;1.70;1.10;;;;;;;24.22;39.25;100859.53;11321529;26;20057;-62
2024/04/13 11:32:11;;;;;;;1.85;0.98;;;;;;;24.26;38.73;100850.19;11320869;26;20047;-62
2024/04/13 11:37:14;;;;;;;2.53;1.10;;;;;;;24.32;39.03;100835.34;11321046;26;20006;-62
2024/04/13 11:42:22;;;;;;;2.90;0.88;;;;;;;24.02;39.03;100829.44;11319513;26;20017;-62
2024/04/13 11:47:33;;;;;;;0.82;0.82;;;;;;;24.01;39.10;100818.91;11321364;26;20500;-63
2024/04/13 11:52:36;;;;;;;2.28;1.13;;;;;;;24.01;38.74;100811.72;11312609;26;20192;-63
2024/04/13 11:57:46;;;;;;;1.52;0.90;;;;;;;24.32;38.00;100811.28;11322825;26;20013;-62
2024/04/13 12:02:49;;;;;;;1.48;0.85;;;;;;;24.24;38.29;100804.06;11322315;26;20332;-62
2024/04/13 12:07:52;;;;;;;1.83;1.20;;;;;;;24.23;38.48;100795.19;11325135;26;20020;-62
2024/04/13 12:12:56;;;;;;;1.52;0.90;;;;;;;24.33;38.00;100787.06;11326662;26;20045;-62
2024/04/13 12:17:59;;;;;;;9.02;2.58;;;;;;;24.06;37.76;100782.69;11324391;26;20006;-62
2024/04/13 12:23:02;;;;;;;1.23;0.80;;;;;;;24.14;37.58;100764.06;11326917;26;20013;-63
2024/04/13 12:28:07;;;;;;;1.13;1.00;;;;;;;24.11;37.51;100756.38;11322536;26;20424;-63
2024/04/13 12:33:10;;;;;;;1.25;0.98;;;;;;;24.16;37.29;100743.34;11322864;26;20503;-62
2024/04/13 12:38:13;;;;;;;1.60;0.98;;;;;;;24.55;37.59;100732.19;11320415;26;20471;-62
2024/04/13 12:43:15;;;;;;;2.47;1.52;;;;;;;24.51;37.37;100725.47;11288540;26;21302;-62
2024/04/13 12:48:19;;;;;;;3.08;1.10;;;;;;;24.67;36.83;100720.19;11319971;26;20580;-62
2024/04/13 12:53:22;;;;;;;1.90;1.23;;;;;;;24.86;36.34;100711.88;11323733;26;20503;-62
2024/04/13 12:58:25;;;;;;;1.10;0.80;;;;;;;24.77;36.38;100695.00;11325119;26;20013;-62
2024/04/13 13:03:27;;;;;;;0.73;0.70;;;;;;;24.95;36.17;100686.81;11324016;26;20114;-61
2024/04/13 13:08:31;;;;;;;1.48;0.98;;;;;;;24.98;36.14;100689.16;11323157;26;20013;-61
2024/04/13 13:13:34;;;;;;;1.42;0.90;;;;;;;25.01;35.85;100675.44;11322236;26;20017;-61
2024/04/13 13:18:37;;;;;;;2.05;0.93;;;;;;;25.05;36.05;100663.41;11323281;26;20008;-61
2024/04/13 13:23:41;;;;;;;1.27;0.85;;;;;;;25.20;35.89;100663.56;11322883;26;19998;-62
2024/04/13 13:28:43;;;;;;;1.23;0.95;;;;;;;25.11;35.56;100646.66;11322894;26;20079;-62
2024/04/13 13:33:50;;;;;;;0.68;0.63;;;;;;;25.34;35.58;100636.16;11323025;26;20002;-61
2024/04/13 13:38:52;;;;;;;1.63;0.90;;;;;;;25.21;35.02;100635.78;11323742;26;20006;-61
2024/04/13 13:43:55;;;;;;;1.58;1.00;;;;;;;25.24;35.20;100625.59;11323807;26;20100;-62
2024/04/13 13:48:58;;;;;;;1.83;1.00;;;;;;;25.26;34.51;100606.69;11330767;26;19994;-63
2024/04/13 13:54:00;;;;;;;1.30;0.90;;;;;;;25.17;34.99;100602.31;11330419;26;20016;-62
2024/04/13 13:59:03;;;;;;;1.08;0.73;;;;;;;25.28;34.43;100589.44;11331065;26;20001;-63
2024/04/13 14:04:06;;;;;;;1.00;0.75;;;;;;;25.07;34.59;100586.44;11328076;26;19998;-62
2024/04/13 14:09:09;;;;;;;1.02;0.90;;;;;;;25.22;34.92;100578.56;11329782;26;20091;-62
2024/04/13 14:14:12;;;;;;;0.90;0.90;;;;;;;25.30;35.20;100563.34;11330273;26;19998;-62
2024/04/13 14:19:14;;;;;;;1.52;1.00;;;;;;;25.39;34.83;100548.94;11331265;26;20490;-63
2024/04/13 14:24:17;;;;;;;2.03;0.98;;;;;;;25.49;34.93;100538.84;11327228;26;19998;-63
2024/04/13 14:29:20;;;;;;;0.60;0.55;;;;;;;25.41;34.76;100538.03;11329276;26;20470;-62
2024/04/13 14:34:22;;;;;;;2.13;0.88;;;;;;;25.40;35.17;100523.84;11329036;26;20002;-63
2024/04/13 14:39:25;;;;;;;2.30;1.35;;;;;;;25.41;34.75;100514.78;11329900;26;20017;-62
2024/04/13 14:44:27;;;;;;;1.52;0.80;;;;;;;25.49;35.24;100500.53;11326725;26;20880;-62
2024/04/13 14:49:30;;;;;;;2.63;1.30;;;;;;;25.48;35.43;100497.03;11330158;26;20402;-63
2024/04/13 14:54:33;;;;;;;2.80;1.05;;;;;;;25.46;35.12;100485.66;11327763;26;20006;-62
2024/04/13 14:59:36;;;;;;;2.08;1.00;;;;;;;25.34;35.33;100460.25;11328688;26;19998;-64
2024/04/13 15:04:38;;;;;;;1.90;1.10;;;;;;;25.67;35.39;100464.44;11327139;26;20014;-62
2024/04/13 15:09:41;;;;;;;2.38;1.00;;;;;;;25.57;35.33;100454.97;11296898;26;20022;-63
2024/04/13 15:14:44;;;;;;;1.02;0.95;;;;;;;25.36;35.49;100442.19;11324320;26;20446;-62
2024/04/13 15:19:48;;;;;;;1.92;1.08;;;;;;;25.34;35.79;100438.00;11316739;26;20395;-62
2024/04/13 15:24:53;;;;;;;1.85;0.80;;;;;;;25.16;36.27;100430.19;11325405;26;20010;-61
2024/04/13 15:29:57;;;;;;;2.30;1.13;;;;;;;25.37;36.08;100424.25;11325464;26;20008;-62
2024/04/13 15:35:00;;;;;;;2.97;1.73;;;;;;;25.25;36.04;100402.34;11327964;26;20002;-62
2024/04/13 15:40:06;;;;;;;1.67;1.23;;;;;;;25.04;35.92;100399.41;11327200;26;20436;-62
2024/04/13 15:45:09;;;;;;;3.38;1.20;;;;;;;25.12;36.02;100387.88;11327505;26;19998;-62
2024/04/13 15:50:11;;;;;;;1.35;1.00;;;;;;;25.01;36.35;100381.91;11325082;26;20442;-62
2024/04/13 15:55:15;;;;;;;3.80;1.77;;;;;;;24.98;36.45;100378.72;11325969;26;20002;-62
2024/04/13 16:00:20;;;;;;;3.92;1.20;;;;;;;25.08;36.24;100376.69;11317127;26;20010;-63
2024/04/13 16:05:23;;;;;;;2.42;1.48;;;;;;;25.01;36.54;100371.19;11316804;26;19998;-63
2024/04/13 16:10:26;;;;;;;3.15;1.08;;;;;;;24.89;36.93;100374.41;11317517;26;20013;-63
2024/04/13 16:15:30;;;;;;;1.13;1.00;;;;;;;24.76;37.00;100364.25;11314537;26;20021;-64
2024/04/13 16:20:32;;;;;;;2.47;1.33;;;;;;;24.73;36.96;100361.94;11312864;26;20037;-63
2024/04/13 16:25:35;;;;;;;1.45;1.02;;;;;;;24.57;37.37;100347.72;11317710;26;20006;-63
2024/04/13 16:30:38;;;;;;;4.00;2.40;;;;;;;24.45;36.88;100347.25;11313310;26;20346;-63
2024/04/13 16:35:42;;;;;;;12.35;8.40;;;;;;;24.38;37.50;100353.44;11343491;25;20067;-63
2024/04/13 16:40:44;;;;;;;9.25;4.88;;;;;;;24.35;37.38;100345.78;11317031;26;20017;-63
2024/04/13 16:45:47;;;;;;;3.70;2.30;;;;;;;24.29;37.63;100345.44;11316395;26;20013;-63
2024/04/13 16:50:57;;;;;;;2.22;1.67;;;;;;;24.34;37.17;100346.78;11273916;26;20473;-63
2024/04/13 16:56:00;;;;;;;1.98;1.20;;;;;;;24.50;37.42;100338.72;11317611;26;20010;-63
2024/04/13 17:01:02;;;;;;;3.40;1.33;;;;;;;24.28;37.74;100345.63;11317979;26;20010;-63
2024/04/13 17:06:06;;;;;;;2.33;1.40;;;;;;;23.95;38.10;100336.75;11317157;26;20046;-63
2024/04/13 17:11:08;;;;;;;4.90;1.30;;;;;;;23.68;38.39;100337.06;11319250;26;20006;-63
2024/04/13 17:16:12;;;;;;;2.17;1.38;;;;;;;23.47;38.61;100336.75;11315571;26;20513;-63
2024/04/13 17:21:14;;;;;;;1.90;1.20;;;;;;;23.20;39.07;100343.16;11324935;26;19994;-63
2024/04/13 17:26:17;;;;;;;2.50;1.55;;;;;;;23.15;40.06;100331.28;11322041;26;19998;-64
2024/04/13 17:31:20;;;;;;;2.20;1.27;;;;;;;23.00;40.35;100328.41;11320340;26;19998;-63
2024/04/13 17:36:23;;;;;;;3.22;1.30;;;;;;;22.85;40.68;100324.66;11321880;26;20201;-63
2024/04/13 17:41:25;;;;;;;1.88;1.13;;;;;;;22.63;41.04;100331.38;11322436;26;19998;-64
2024/04/13 17:46:28;;;;;;;2.42;1.33;;;;;;;22.32;41.93;100316.88;11321592;26;20009;-64
2024/04/13 17:51:30;;;;;;;5.15;1.40;;;;;;;22.05;42.27;100329.53;11318138;26;20029;-63
2024/04/13 17:56:36;;;;;;;3.22;1.48;;;;;;;21.81;42.57;100317.63;11316904;26;20447;-63
2024/04/13 18:01:39;;;;;;;3.33;1.20;;;;;;;21.59;42.93;100319.94;11316677;26;20001;-63
2024/04/13 18:06:43;;;;;;;3.70;1.50;;;;;;;21.34;43.31;100321.53;11315636;26;20501;-63
2024/04/13 18:11:46;;;;;;;2.63;1.35;;;;;;;21.15;43.69;100324.25;11321192;26;20342;-64
2024/04/13 18:16:49;;;;;;;3.30;1.45;;;;;;;20.98;43.79;100323.28;11328566;26;20006;-63
2024/04/13 18:21:52;;;;;;;1.73;1.20;;;;;;;20.84;44.23;100314.94;11329986;26;20054;-63
2024/04/13 18:26:55;;;;;;;3.55;1.40;;;;;;;20.69;44.51;100316.41;11329936;26;20588;-63
2024/04/13 18:32:01;;;;;;;4.05;1.13;;;;;;;20.51;45.08;100318.97;11287168;26;19998;-64
2024/04/13 18:37:04;;;;;;;2.70;1.17;;;;;;;20.37;45.41;100338.03;11326220;26;20018;-61
2024/04/13 18:42:07;;;;;;;1.92;1.17;;;;;;;20.23;45.82;100341.97;11328260;26;20002;-61
2024/04/13 18:47:09;;;;;;;1.83;1.27;;;;;;;20.13;45.93;100346.47;11329387;26;20477;-61
2024/04/13 18:52:12;;;;;;;2.75;1.60;;;;;;;19.95;46.58;100342.03;11329832;26;20486;-61
2024/04/13 18:57:16;;;;;;;3.17;1.40;;;;;;;19.85;46.73;100352.66;11330714;26;20353;-61
2024/04/13 19:02:19;;;;;;;1.80;1.13;;;;;;;19.63;47.31;100355.56;11327868;26;20020;-62
2024/04/13 19:07:22;;;;;;;3.60;1.40;;;;;;;19.52;47.73;100350.41;11320483;26;20078;-61
2024/04/13 19:12:26;;;;;;;4.03;1.85;;;;;;;19.37;48.03;100357.06;11323005;26;20003;-61
2024/04/13 19:17:28;;;;;;;7.95;2.17;;;;;;;19.25;48.29;100351.06;11317754;26;20397;-62
2024/04/13 19:22:31;;;;;;;5.05;2.50;;;;;;;19.08;48.88;100351.69;11325467;26;20009;-62
2024/04/13 19:27:34;;;;;;;5.70;2.25;;;;;;;18.91;49.05;100344.34;11318041;26;20014;-62
2024/04/13 19:32:37;;;;;;;4.55;2.13;;;;;;;18.72;49.30;100349.59;11323586;26;20006;-62
2024/04/13 19:37:40;;;;;;;2.90;1.70;;;;;;;18.61;49.55;100347.03;11319165;26;20009;-62
2024/04/13 19:42:42;;;;;;;3.33;1.65;;;;;;;18.53;50.26;100336.25;11322654;26;20473;-62
2024/04/13 19:47:45;;;;;;;3.13;1.77;;;;;;;18.38;50.32;100324.34;11322134;26;20009;-62
2024/04/13 19:52:48;;;;;;;2.90;1.52;;;;;;;18.20;50.85;100337.31;11318028;26;20455;-62
2024/04/13 19:57:51;;;;;;;3.55;1.60;;;;;;;17.97;51.25;100324.31;11322052;26;20006;-62
2024/04/13 20:02:53;;;;;;;3.25;1.48;;;;;;;17.91;51.29;100344.22;11320437;26;20077;-62
2024/04/13 20:07:57;;;;;;;3.47;1.60;;;;;;;17.87;51.67;100334.84;11322863;26;20013;-62
2024/04/13 20:13:01;;;;;;;2.78;1.60;;;;;;;17.77;51.73;100333.94;11313656;26;20438;-62
2024/04/13 20:23:29;;;;;;;4.40;1.52;;;;;;;17.61;52.44;100336.16;11316833;26;20055;-61
2024/04/13 20:28:33;;;;;;;5.38;1.77;;;;;;;17.54;52.29;100337.63;11355325;26;20218;-62
2024/04/13 20:33:39;;;;;;;6.35;2.10;;;;;;;17.33;52.69;100340.22;11325752;26;20353;-62
2024/04/13 20:38:43;;;;;;;3.38;2.03;;;;;;;17.19;52.98;100331.69;11351367;25;20518;-62
2024/04/13 20:43:47;;;;;;;4.88;2.28;;;;;;;17.13;53.04;100337.47;11324915;26;20120;-62
2024/04/13 20:48:51;;;;;;;4.30;1.52;;;;;;;16.97;53.50;100329.94;11325281;26;20350;-61
2024/04/13 20:53:54;;;;;;;3.88;1.50;;;;;;;16.90;53.60;100331.38;11323988;26;20135;-62
2024/04/13 20:58:57;;;;;;;2.78;1.70;;;;;;;16.66;54.04;100331.53;11323898;26;20016;-61
2024/04/13 21:03:59;;;;;;;3.67;1.70;;;;;;;16.60;54.04;100325.88;11322334;26;20041;-61
2024/04/13 21:09:05;;;;;;;2.65;1.70;;;;;;;16.44;54.60;100334.16;11321030;26;20002;-61
2024/04/13 21:14:08;;;;;;;3.10;1.75;;;;;;;16.33;54.45;100326.19;11315726;26;20013;-62
2024/04/13 21:19:11;;;;;;;2.83;1.67;;;;;;;16.22;54.74;100328.84;11323412;26;20001;-61
2024/04/13 21:24:13;;;;;;;6.32;1.55;;;;;;;16.06;55.16;100328.31;11324172;26;20453;-61
2024/04/13 21:29:16;;;;;;;1.88;1.33;;;;;;;16.13;55.41;100334.81;11323607;26;20013;-62
2024/04/13 21:34:21;;;;;;;3.97;1.88;;;;;;;16.10;55.31;100335.88;11287397;26;20014;-62
2024/04/13 21:39:24;;;;;;;3.20;1.60;;;;;;;16.06;55.63;100330.97;11323391;26;20451;-61
2024/04/13 21:44:26;;;;;;;2.10;1.40;;;;;;;15.98;55.63;100336.81;11322050;26;19998;-61
2024/04/13 21:49:29;;;;;;;2.75;1.55;;;;;;;15.94;56.02;100330.06;11322944;26;20453;-61
2024/04/13 21:54:32;;;;;;;3.20;1.77;;;;;;;15.84;55.84;100331.72;11323691;26;20006;-62
2024/04/13 21:59:35;;;;;;;4.20;1.60;;;;;;;15.76;56.27;100342.00;11322456;26;20053;-61
2024/04/13 22:04:37;;;;;;;4.30;1.80;;;;;;;15.70;56.54;100331.91;11323433;26;20017;-61
2024/04/13 22:09:40;;;;;;;2.75;1.60;;;;;;;15.57;56.71;100335.59;11328481;26;20107;-62
2024/04/13 22:14:46;;;;;;;2.60;1.50;;;;;;;15.54;56.90;100327.91;11328447;26;19998;-62
2024/04/13 22:19:51;;;;;;;3.28;1.60;;;;;;;15.48;57.08;100331.81;11328095;26;20448;-61
2024/04/13 22:24:54;;;;;;;2.15;1.40;;;;;;;15.46;56.90;100333.72;11328488;26;20018;-61
2024/04/13 22:29:58;;;;;;;3.47;1.67;;;;;;;15.47;56.95;100329.28;11330741;26;19998;-61
2024/04/13 22:35:00;;;;;;;2.38;1.30;;;;;;;15.45;56.82;100325.91;11328588;26;20017;-61
2024/04/13 22:40:04;;;;;;;3.20;1.20;;;;;;;15.33;57.40;100328.47;11325248;26;20010;-61
2024/04/13 22:45:06;;;;;;;3.15;1.38;;;;;;;15.33;57.54;100325.00;11328621;26;20446;-61
2024/04/13 22:50:09;;;;;;;2.58;1.60;;;;;;;15.30;57.14;100320.81;11327059;26;20312;-62
2024/04/13 22:55:12;;;;;;;2.20;1.40;;;;;;;15.33;57.21;100317.09;11325402;26;19998;-61
2024/04/13 23:00:15;;;;;;;3.92;1.50;;;;;;;15.46;57.38;100317.03;11327836;26;20006;-61
2024/04/13 23:05:18;;;;;;;3.03;1.42;;;;;;;15.45;57.00;100310.91;11326723;26;20012;-61
2024/04/13 23:10:20;;;;;;;2.92;1.48;;;;;;;15.42;57.08;100303.25;11324246;26;19998;-62
2024/04/13 23:15:23;;;;;;;2.83;1.50;;;;;;;15.39;57.45;100311.38;11325263;26;20002;-61
2024/04/13 23:20:26;;;;;;;3.28;1.48;;;;;;;15.48;57.30;100305.44;11328764;26;20006;-61